createdAt,value
2019-05-30T00:00:45.114Z,0.00
2019-05-30T00:02:38.024Z,0.00
2019-05-30T00:03:38.032Z,0.00
2019-05-30T00:05:30.950Z,0.00
2019-05-30T00:06:30.959Z,0.00
2019-05-30T00:08:23.866Z,0.00
2019-05-30T00:09:23.877Z,0.00
2019-05-30T00:11:16.789Z,0.00
2019-05-30T00:12:16.795Z,0.00
2019-05-30T00:14:09.720Z,0.00
2019-05-30T00:15:09.778Z,0.00
2019-05-30T00:17:03.052Z,0.00
2019-05-30T00:18:02.962Z,0.00
2019-05-30T00:19:56.687Z,0.00
2019-05-30T00:20:56.696Z,0.00
2019-05-30T00:22:48.457Z,0.00
2019-05-30T00:23:48.465Z,0.00
2019-05-30T00:25:41.413Z,0.00
2019-05-30T00:26:41.380Z,0.00
2019-05-30T00:28:34.289Z,0.00
2019-05-30T00:29:34.301Z,0.00
2019-05-30T00:31:27.208Z,0.00
2019-05-30T00:32:27.212Z,0.00
2019-05-30T00:34:20.127Z,0.00
2019-05-30T00:35:20.131Z,0.00
2019-05-30T00:37:13.039Z,0.00
2019-05-30T00:38:13.048Z,0.00
2019-05-30T00:40:06.151Z,0.00
2019-05-30T00:41:06.224Z,0.00
2019-05-30T00:42:59.965Z,0.00
2019-05-30T00:43:59.875Z,0.00
2019-05-30T00:45:51.797Z,0.00
2019-05-30T00:46:51.800Z,0.00
2019-05-30T00:48:44.709Z,0.00
2019-05-30T00:49:44.719Z,0.00
2019-05-30T00:51:37.631Z,0.00
2019-05-30T00:52:37.634Z,0.00
2019-05-30T00:54:31.028Z,0.00
2019-05-30T00:55:30.556Z,0.00
2019-05-30T00:57:23.467Z,0.00
2019-05-30T00:58:23.481Z,0.00
2019-05-30T01:00:16.390Z,0.00
2019-05-30T01:01:16.396Z,0.00
2019-05-30T01:03:09.384Z,0.00
2019-05-30T01:04:09.314Z,0.00
2019-05-30T01:06:02.968Z,0.00
2019-05-30T01:07:03.562Z,0.00
2019-05-30T01:08:55.145Z,0.00
2019-05-30T01:09:55.153Z,0.00
2019-05-30T01:11:48.066Z,0.00
2019-05-30T01:12:48.073Z,0.00
2019-05-30T01:14:40.990Z,0.00
2019-05-30T01:15:40.990Z,0.00
2019-05-30T01:17:33.902Z,0.00
2019-05-30T01:18:33.930Z,0.00
2019-05-30T01:20:26.830Z,0.00
2019-05-30T01:21:26.833Z,0.00
2019-05-30T01:23:19.740Z,0.00
2019-05-30T01:24:19.756Z,0.00
2019-05-30T01:26:12.666Z,0.00
2019-05-30T01:27:12.671Z,0.00
2019-05-30T01:29:05.618Z,0.00
2019-05-30T01:30:05.769Z,0.00
2019-05-30T01:31:59.399Z,0.00
2019-05-30T01:32:59.641Z,0.00
2019-05-30T01:34:51.487Z,0.00
2019-05-30T01:35:51.487Z,0.00
2019-05-30T01:37:44.397Z,0.00
2019-05-30T01:38:44.409Z,0.00
2019-05-30T01:40:37.321Z,0.00
2019-05-30T01:41:37.324Z,0.00
2019-05-30T01:43:30.238Z,0.00
2019-05-30T01:44:30.244Z,0.00
2019-05-30T01:46:23.167Z,0.00
2019-05-30T01:47:23.164Z,0.00
2019-05-30T01:49:16.072Z,0.00
2019-05-30T01:50:16.079Z,0.00
2019-05-30T01:52:09.002Z,0.00
2019-05-30T01:53:09.022Z,0.00
2019-05-30T01:55:02.780Z,0.00
2019-05-30T01:56:02.721Z,0.00
2019-05-30T01:57:54.837Z,0.00
2019-05-30T01:58:54.843Z,0.00
2019-05-30T02:00:47.760Z,0.00
2019-05-30T02:01:47.767Z,0.00
2019-05-30T02:03:40.673Z,0.00
2019-05-30T02:04:40.683Z,0.00
2019-05-30T02:06:33.596Z,0.00
2019-05-30T02:07:33.603Z,0.00
2019-05-30T02:09:26.513Z,0.00
2019-05-30T02:10:26.525Z,0.00
2019-05-30T02:12:19.435Z,0.00
2019-05-30T02:13:19.442Z,0.00
2019-05-30T02:15:12.358Z,0.00
2019-05-30T02:16:12.364Z,0.00
2019-05-30T02:18:05.751Z,0.00
2019-05-30T02:19:05.839Z,0.00
2019-05-30T02:20:58.211Z,0.00
2019-05-30T02:21:58.205Z,0.00
2019-05-30T02:23:51.113Z,0.00
2019-05-30T02:24:51.122Z,0.00
2019-05-30T02:26:44.048Z,0.00
2019-05-30T02:27:44.044Z,0.00
2019-05-30T02:29:36.957Z,0.00
2019-05-30T02:30:36.971Z,0.00
2019-05-30T02:32:29.890Z,0.00
2019-05-30T02:33:29.888Z,0.00
2019-05-30T02:35:22.803Z,0.00
2019-05-30T02:36:22.808Z,0.00
2019-05-30T02:38:15.724Z,4.00
2019-05-30T02:39:15.731Z,4.00
2019-05-30T02:41:10.076Z,0.00
2019-05-30T02:42:09.703Z,4.00
2019-05-30T02:44:02.917Z,4.00
2019-05-30T02:45:03.417Z,4.00
2019-05-30T02:46:54.496Z,8.00
2019-05-30T02:47:54.485Z,8.00
2019-05-30T02:49:47.404Z,12.00
2019-05-30T02:50:47.405Z,12.00
2019-05-30T02:52:40.319Z,16.00
2019-05-30T02:53:40.325Z,16.00
2019-05-30T02:55:33.248Z,20.00
2019-05-30T02:56:33.250Z,24.00
2019-05-30T02:58:26.157Z,28.00
2019-05-30T02:59:26.171Z,32.00
2019-05-30T03:01:19.089Z,40.00
2019-05-30T03:02:19.092Z,44.00
2019-05-30T03:04:12.890Z,48.00
2019-05-30T03:05:14.884Z,56.00
2019-05-30T03:07:07.084Z,68.00
2019-05-30T03:08:06.699Z,76.00
2019-05-30T03:09:57.851Z,88.00
2019-05-30T03:10:57.863Z,96.00
2019-05-30T03:12:50.790Z,108.00
2019-05-30T03:13:50.782Z,116.00
2019-05-30T03:15:43.730Z,132.00
2019-05-30T03:16:43.704Z,140.00
2019-05-30T03:18:36.624Z,160.00
2019-05-30T03:19:36.634Z,172.00
2019-05-30T03:21:29.557Z,200.00
2019-05-30T03:22:29.554Z,208.00
2019-05-30T03:24:22.468Z,228.00
2019-05-30T03:25:22.478Z,240.00
2019-05-30T03:27:15.392Z,264.00
2019-05-30T03:28:15.403Z,276.00
2019-05-30T03:30:16.824Z,304.00
2019-05-30T03:31:17.677Z,316.00
2019-05-30T03:33:12.963Z,340.00
2019-05-30T03:34:04.501Z,360.00
2019-05-30T03:35:54.170Z,384.00
2019-05-30T03:36:54.347Z,400.00
2019-05-30T03:38:47.086Z,432.00
2019-05-30T03:39:47.114Z,448.00
2019-05-30T03:41:40.010Z,496.00
2019-05-30T03:42:40.020Z,520.00
2019-05-30T03:44:32.926Z,564.00
2019-05-30T03:45:32.946Z,600.00
2019-05-30T03:47:25.863Z,672.00
2019-05-30T03:48:25.863Z,700.00
2019-05-30T03:50:18.769Z,760.00
2019-05-30T03:51:18.777Z,788.00
2019-05-30T03:53:13.888Z,860.00
2019-05-30T03:54:13.654Z,912.00
2019-05-30T03:56:04.634Z,992.00
2019-05-30T03:57:04.725Z,1020.00
2019-05-30T03:58:57.540Z,1084.00
2019-05-30T03:59:57.554Z,1132.00
2019-05-30T04:01:50.468Z,1216.00
2019-05-30T04:02:57.517Z,1256.00
2019-05-30T04:04:43.386Z,1364.00
2019-05-30T04:05:43.395Z,1440.00
2019-05-30T04:07:36.328Z,1684.00
2019-05-30T04:08:36.334Z,1856.00
2019-05-30T04:10:29.232Z,2180.00
2019-05-30T04:11:29.243Z,2308.00
2019-05-30T04:13:22.175Z,2424.00
2019-05-30T04:14:22.166Z,2452.00
2019-05-30T04:16:15.803Z,2580.00
2019-05-30T04:17:16.023Z,2708.00
2019-05-30T04:19:08.156Z,2960.00
2019-05-30T04:20:09.345Z,3056.00
2019-05-30T04:22:00.931Z,3188.00
2019-05-30T04:23:00.937Z,3248.00
2019-05-30T04:24:53.857Z,3324.00
2019-05-30T04:25:53.867Z,3364.00
2019-05-30T04:27:47.275Z,3444.00
2019-05-30T04:28:47.286Z,3512.00
2019-05-30T04:30:40.202Z,3708.00
2019-05-30T04:31:40.208Z,3852.00
2019-05-30T04:33:33.944Z,4204.00
2019-05-30T04:34:33.135Z,4480.00
2019-05-30T04:36:26.094Z,5036.00
2019-05-30T04:37:26.064Z,5396.00
2019-05-30T04:39:19.226Z,7064.00
2019-05-30T04:40:19.683Z,6768.00
2019-05-30T04:42:13.653Z,7052.00
2019-05-30T04:43:13.347Z,7216.00
2019-05-30T04:45:04.834Z,6788.00
2019-05-30T04:46:04.850Z,6500.00
2019-05-30T04:47:57.767Z,5908.00
2019-05-30T04:48:57.782Z,5636.00
2019-05-30T04:50:50.693Z,5224.00
2019-05-30T04:51:50.716Z,5000.00
2019-05-30T04:53:43.627Z,4624.00
2019-05-30T04:54:43.633Z,4456.00
2019-05-30T04:56:36.547Z,4632.00
2019-05-30T04:57:36.557Z,6668.00
2019-05-30T04:59:29.514Z,4180.00
2019-05-30T05:00:29.524Z,4064.00
2019-05-30T05:02:23.276Z,4032.00
2019-05-30T05:03:43.508Z,4000.00
2019-05-30T05:05:21.950Z,3956.00
2019-05-30T05:06:15.812Z,3988.00
2019-05-30T05:08:08.304Z,4068.00
2019-05-30T05:09:08.315Z,4076.00
2019-05-30T05:11:01.409Z,3996.00
2019-05-30T05:12:01.240Z,3916.00
2019-05-30T05:13:54.677Z,3752.00
2019-05-30T05:14:54.677Z,3736.00
2019-05-30T05:16:47.605Z,3876.00
2019-05-30T05:17:47.603Z,4012.00
2019-05-30T05:19:40.523Z,4184.00
2019-05-30T05:20:40.536Z,4208.00
2019-05-30T05:22:33.457Z,4108.00
2019-05-30T05:23:33.463Z,4048.00
2019-05-30T05:25:26.385Z,4060.00
2019-05-30T05:26:26.399Z,4076.00
2019-05-30T05:28:19.960Z,4028.00
2019-05-30T05:29:19.909Z,3976.00
2019-05-30T05:31:12.246Z,3864.00
2019-05-30T05:32:12.259Z,3816.00
2019-05-30T05:34:05.177Z,3736.00
2019-05-30T05:35:05.186Z,3680.00
2019-05-30T05:36:58.102Z,3656.00
2019-05-30T05:37:58.116Z,3692.00
2019-05-30T05:39:51.032Z,3836.00
2019-05-30T05:40:51.043Z,3932.00
2019-05-30T05:42:43.964Z,4012.00
2019-05-30T05:43:43.975Z,4012.00
2019-05-30T05:45:37.382Z,3944.00
2019-05-30T05:46:37.399Z,3888.00
2019-05-30T05:48:30.320Z,3876.00
2019-05-30T05:49:30.325Z,3908.00
2019-05-30T05:51:23.240Z,4000.00
2019-05-30T05:52:23.253Z,4084.00
2019-05-30T05:54:16.823Z,4156.00
2019-05-30T05:55:16.688Z,4116.00
2019-05-30T05:57:09.202Z,4008.00
2019-05-30T05:58:09.217Z,3984.00
2019-05-30T06:00:02.155Z,4072.00
2019-05-30T06:01:02.148Z,4164.00
2019-05-30T06:02:55.066Z,4312.00
2019-05-30T06:03:55.074Z,4356.00
2019-05-30T06:05:52.963Z,4468.00
2019-05-30T06:06:48.007Z,4568.00
2019-05-30T06:08:40.927Z,4736.00
2019-05-30T06:09:40.938Z,4776.00
2019-05-30T06:11:33.852Z,4452.00
2019-05-30T06:12:33.866Z,4260.00
2019-05-30T06:14:28.065Z,4088.00
2019-05-30T06:15:26.796Z,4344.00
2019-05-30T06:17:21.074Z,4800.00
2019-05-30T06:18:20.169Z,4928.00
2019-05-30T06:20:12.669Z,4924.00
2019-05-30T06:21:12.660Z,4900.00
2019-05-30T06:23:05.596Z,4964.00
2019-05-30T06:24:05.598Z,5028.00
2019-05-30T06:25:58.514Z,5088.00
2019-05-30T06:26:58.531Z,5032.00
2019-05-30T06:28:51.452Z,4776.00
2019-05-30T06:29:51.460Z,4596.00
2019-05-30T06:31:44.374Z,4252.00
2019-05-30T06:32:44.391Z,4208.00
2019-05-30T06:34:39.521Z,4200.00
2019-05-30T06:35:37.317Z,4272.00
2019-05-30T06:37:30.237Z,4496.00
2019-05-30T06:38:30.249Z,4724.00
2019-05-30T06:40:23.711Z,5272.00
2019-05-30T06:41:23.506Z,5532.00
2019-05-30T06:43:16.100Z,6028.00
2019-05-30T06:44:16.110Z,6156.00
2019-05-30T06:46:09.030Z,6864.00
2019-05-30T06:47:09.038Z,7404.00
2019-05-30T06:49:01.965Z,8648.00
2019-05-30T06:50:01.975Z,8960.00
2019-05-30T06:51:54.896Z,8252.00
2019-05-30T06:52:54.906Z,7672.00
2019-05-30T06:54:47.829Z,6304.00
2019-05-30T06:55:47.837Z,5764.00
2019-05-30T06:57:40.755Z,4676.00
2019-05-30T06:58:48.428Z,4068.00
2019-05-30T07:00:33.694Z,3316.00
2019-05-30T07:01:33.703Z,3320.00
2019-05-30T07:03:26.650Z,3676.00
2019-05-30T07:04:27.707Z,3752.00
2019-05-30T07:06:19.796Z,4012.00
2019-05-30T07:07:19.748Z,4328.00
2019-05-30T07:09:12.747Z,4868.00
2019-05-30T07:10:12.496Z,4972.00
2019-05-30T07:12:06.414Z,5648.00
2019-05-30T07:13:06.428Z,6272.00
2019-05-30T07:14:59.350Z,6840.00
2019-05-30T07:15:59.360Z,7112.00
2019-05-30T07:17:52.283Z,7272.00
2019-05-30T07:18:52.291Z,6984.00
2019-05-30T07:20:45.213Z,6304.00
2019-05-30T07:21:45.223Z,5976.00
2019-05-30T07:23:39.596Z,5860.00
2019-05-30T07:24:38.262Z,6152.00
2019-05-30T07:26:31.938Z,6168.00
2019-05-30T07:27:32.000Z,5916.00
2019-05-30T07:29:24.023Z,5984.00
2019-05-30T07:30:24.011Z,5776.00
2019-05-30T07:32:16.963Z,5664.00
2019-05-30T07:33:16.944Z,5516.00
2019-05-30T07:35:09.861Z,5416.00
2019-05-30T07:36:09.868Z,5436.00
2019-05-30T07:38:02.848Z,4888.00
2019-05-30T07:39:02.799Z,4712.00
2019-05-30T07:40:55.721Z,4740.00
2019-05-30T07:42:05.635Z,4688.00
2019-05-30T07:43:48.654Z,4628.00
2019-05-30T07:44:48.665Z,4936.00
2019-05-30T07:46:41.590Z,5076.00
2019-05-30T07:47:41.606Z,5632.00
2019-05-30T07:49:34.653Z,6188.00
2019-05-30T07:50:34.627Z,6348.00
2019-05-30T07:52:28.414Z,6312.00
2019-05-30T07:53:28.482Z,6452.00
2019-05-30T07:55:20.395Z,6448.00
2019-05-30T07:56:20.400Z,6100.00
2019-05-30T07:58:14.315Z,6088.00
2019-05-30T07:59:14.325Z,5888.00
2019-05-30T08:01:07.273Z,6528.00
2019-05-30T08:02:07.281Z,7456.00
2019-05-30T08:04:00.273Z,10524.00
2019-05-30T08:05:00.223Z,11256.00
2019-05-30T08:06:53.144Z,11768.00
2019-05-30T08:07:53.150Z,12300.00
2019-05-30T08:09:46.073Z,12572.00
2019-05-30T08:10:46.084Z,13120.00
2019-05-30T08:12:39.033Z,13472.00
2019-05-30T08:13:39.046Z,14292.00
2019-05-30T08:15:33.382Z,13980.00
2019-05-30T08:16:31.985Z,13364.00
2019-05-30T08:18:24.912Z,11456.00
2019-05-30T08:19:24.924Z,10216.00
2019-05-30T08:21:17.851Z,9088.00
2019-05-30T08:22:18.011Z,8960.00
2019-05-30T08:24:10.793Z,8868.00
2019-05-30T08:25:10.803Z,8976.00
2019-05-30T08:27:03.727Z,8924.00
2019-05-30T08:28:03.742Z,8660.00
2019-05-30T08:29:56.667Z,8052.00
2019-05-30T08:30:57.043Z,8296.00
2019-05-30T08:32:49.598Z,9208.00
2019-05-30T08:33:49.610Z,9060.00
2019-05-30T08:35:49.482Z,9996.00
2019-05-30T08:36:42.791Z,10792.00
2019-05-30T08:38:35.492Z,11064.00
2019-05-30T08:39:35.497Z,11288.00
2019-05-30T08:41:29.117Z,11348.00
2019-05-30T08:42:29.521Z,12524.00
2019-05-30T08:44:21.399Z,13596.00
2019-05-30T08:45:21.488Z,13392.00
2019-05-30T08:47:14.338Z,12612.00
2019-05-30T08:48:14.341Z,12340.00
2019-05-30T08:50:07.290Z,12268.00
2019-05-30T08:51:07.303Z,10688.00
2019-05-30T08:53:01.203Z,10140.00
2019-05-30T08:54:00.240Z,9964.00
2019-05-30T08:55:53.166Z,10196.00
2019-05-30T08:56:53.180Z,10564.00
2019-05-30T08:58:46.099Z,10020.00
2019-05-30T08:59:46.141Z,10160.00
2019-05-30T09:01:40.470Z,10960.00
2019-05-30T09:02:39.062Z,10964.00
2019-05-30T09:04:32.107Z,11756.00
2019-05-30T09:05:32.065Z,11512.00
2019-05-30T09:07:24.989Z,10736.00
2019-05-30T09:08:25.003Z,10808.00
2019-05-30T09:10:17.932Z,12276.00
2019-05-30T09:11:17.948Z,12604.00
2019-05-30T09:13:10.872Z,11696.00
2019-05-30T09:14:10.883Z,11020.00
2019-05-30T09:16:03.812Z,9976.00
2019-05-30T09:17:03.822Z,9400.00
2019-05-30T09:18:56.819Z,8364.00
2019-05-30T09:19:56.764Z,8164.00
2019-05-30T09:21:49.703Z,8544.00
2019-05-30T09:22:49.719Z,9100.00
2019-05-30T09:24:43.851Z,11260.00
2019-05-30T09:25:43.898Z,11092.00
2019-05-30T09:27:35.572Z,10204.00
2019-05-30T09:28:35.627Z,10940.00
2019-05-30T09:30:28.527Z,10368.00
2019-05-30T09:31:28.540Z,10116.00
2019-05-30T09:33:21.465Z,9068.00
2019-05-30T09:34:21.478Z,8304.00
2019-05-30T09:36:14.415Z,8532.00
2019-05-30T09:37:14.430Z,8820.00
2019-05-30T09:39:07.350Z,9784.00
2019-05-30T09:40:07.366Z,9928.00
2019-05-30T09:42:01.293Z,10268.00
2019-05-30T09:43:01.306Z,10428.00
2019-05-30T09:44:54.239Z,9920.00
2019-05-30T09:45:54.247Z,9688.00
2019-05-30T09:47:48.852Z,9280.00
2019-05-30T09:48:47.197Z,9324.00
2019-05-30T09:50:42.027Z,9032.00
2019-05-30T09:51:40.560Z,9192.00
2019-05-30T09:53:33.047Z,9912.00
2019-05-30T09:54:33.063Z,10004.00
2019-05-30T09:56:25.989Z,10380.00
2019-05-30T09:57:26.018Z,9460.00
2019-05-30T09:59:18.924Z,10380.00
2019-05-30T10:00:18.945Z,11912.00
2019-05-30T10:02:11.868Z,11160.00
2019-05-30T10:03:11.884Z,11532.00
2019-05-30T10:05:04.815Z,12224.00
2019-05-30T10:06:04.822Z,12284.00
2019-05-30T10:07:57.749Z,9824.00
2019-05-30T10:08:57.765Z,9108.00
2019-05-30T10:10:51.360Z,7980.00
2019-05-30T10:11:51.375Z,7616.00
2019-05-30T10:13:44.000Z,7840.00
2019-05-30T10:14:45.121Z,8280.00
2019-05-30T10:16:36.589Z,9076.00
2019-05-30T10:17:36.597Z,8964.00
2019-05-30T10:19:29.533Z,9096.00
2019-05-30T10:20:29.534Z,9632.00
2019-05-30T10:22:22.465Z,9912.00
2019-05-30T10:23:22.479Z,10036.00
2019-05-30T10:25:15.405Z,9116.00
2019-05-30T10:26:15.418Z,9648.00
2019-05-30T10:28:09.349Z,13456.00
2019-05-30T10:29:09.366Z,15068.00
2019-05-30T10:31:02.308Z,13500.00
2019-05-30T10:32:02.304Z,13600.00
2019-05-30T10:33:55.240Z,11948.00
2019-05-30T10:34:56.125Z,11988.00
2019-05-30T10:36:49.203Z,12108.00
2019-05-30T10:37:49.117Z,12400.00
2019-05-30T10:39:41.135Z,11664.00
2019-05-30T10:40:41.128Z,10100.00
2019-05-30T10:42:34.545Z,9616.00
2019-05-30T10:43:34.561Z,8736.00
2019-05-30T10:45:27.539Z,8300.00
2019-05-30T10:46:27.504Z,8156.00
2019-05-30T10:48:21.091Z,9036.00
2019-05-30T10:49:33.616Z,8872.00
2019-05-30T10:51:13.371Z,8916.00
2019-05-30T10:52:13.386Z,8432.00
2019-05-30T10:54:06.324Z,8088.00
2019-05-30T10:55:06.326Z,8628.00
2019-05-30T10:56:59.747Z,9792.00
2019-05-30T10:57:59.864Z,10544.00
2019-05-30T10:59:52.691Z,11044.00
2019-05-30T11:00:53.873Z,10792.00
2019-05-30T11:02:47.114Z,10384.00
2019-05-30T11:03:46.027Z,10316.00
2019-05-30T11:05:38.582Z,11488.00
2019-05-30T11:06:38.583Z,11644.00
2019-05-30T11:08:31.505Z,10640.00
2019-05-30T11:09:31.524Z,10132.00
2019-05-30T11:11:24.523Z,11512.00
2019-05-30T11:12:24.459Z,11724.00
2019-05-30T11:14:17.875Z,10140.00
2019-05-30T11:15:17.934Z,9640.00
2019-05-30T11:17:10.899Z,8668.00
2019-05-30T11:18:10.839Z,8412.00
2019-05-30T11:20:03.755Z,8180.00
2019-05-30T11:21:03.773Z,8392.00
2019-05-30T11:22:56.722Z,8260.00
2019-05-30T11:23:56.844Z,7896.00
2019-05-30T11:25:50.500Z,8352.00
2019-05-30T11:26:50.954Z,8304.00
2019-05-30T11:28:42.580Z,8056.00
2019-05-30T11:29:42.587Z,7748.00
2019-05-30T11:31:36.004Z,6872.00
2019-05-30T11:32:36.021Z,7248.00
2019-05-30T11:34:28.957Z,6912.00
2019-05-30T11:35:28.961Z,7212.00
2019-05-30T11:37:21.892Z,8792.00
2019-05-30T11:38:21.984Z,8148.00
2019-05-30T11:40:14.839Z,7396.00
2019-05-30T11:41:14.844Z,7320.00
2019-05-30T11:43:07.776Z,6812.00
2019-05-30T11:44:07.783Z,6804.00
2019-05-30T11:46:00.706Z,7112.00
2019-05-30T11:47:00.746Z,7088.00
2019-05-30T11:48:54.132Z,6612.00
2019-05-30T11:49:54.147Z,6348.00
2019-05-30T11:51:47.075Z,6120.00
2019-05-30T11:52:47.094Z,6536.00
2019-05-30T11:54:40.008Z,6928.00
2019-05-30T11:55:40.027Z,6740.00
2019-05-30T11:57:32.968Z,6544.00
2019-05-30T11:58:32.974Z,6400.00
2019-05-30T12:00:25.895Z,5924.00
2019-05-30T12:01:25.982Z,5928.00
2019-05-30T12:03:18.837Z,6360.00
2019-05-30T12:04:18.848Z,6356.00
2019-05-30T12:06:11.775Z,6104.00
2019-05-30T12:07:11.787Z,6220.00
2019-05-30T12:09:04.716Z,5908.00
2019-05-30T12:10:04.790Z,6160.00
2019-05-30T12:11:59.212Z,6792.00
2019-05-30T12:12:59.336Z,7044.00
2019-05-30T12:14:51.285Z,6316.00
2019-05-30T12:15:51.381Z,5804.00
2019-05-30T12:17:44.016Z,5716.00
2019-05-30T12:18:44.026Z,5668.00
2019-05-30T12:20:36.949Z,6460.00
2019-05-30T12:21:36.968Z,7176.00
2019-05-30T12:23:29.899Z,6812.00
2019-05-30T12:24:29.924Z,6880.00
2019-05-30T12:26:22.836Z,6296.00
2019-05-30T12:27:22.854Z,6636.00
2019-05-30T12:29:15.772Z,5900.00
2019-05-30T12:30:15.786Z,6048.00
2019-05-30T12:32:08.709Z,5956.00
2019-05-30T12:33:08.720Z,6420.00
2019-05-30T12:35:02.845Z,6416.00
2019-05-30T12:36:02.669Z,6268.00
2019-05-30T12:37:59.105Z,5576.00
2019-05-30T12:38:54.595Z,5404.00
2019-05-30T12:40:47.526Z,4992.00
2019-05-30T12:41:47.533Z,4848.00
2019-05-30T12:43:40.493Z,4764.00
2019-05-30T12:44:40.510Z,5056.00
2019-05-30T12:46:33.493Z,5496.00
2019-05-30T12:47:33.451Z,5984.00
2019-05-30T12:49:26.374Z,6676.00
2019-05-30T12:50:26.389Z,6732.00
2019-05-30T12:52:19.314Z,7000.00
2019-05-30T12:53:19.328Z,7136.00
2019-05-30T12:55:12.249Z,7596.00
2019-05-30T12:56:12.265Z,7292.00
2019-05-30T12:58:05.192Z,6876.00
2019-05-30T12:59:05.203Z,6412.00
2019-05-30T13:00:58.759Z,6268.00
2019-05-30T13:01:58.961Z,6440.00
2019-05-30T13:03:51.068Z,7008.00
2019-05-30T13:04:51.083Z,7312.00
2019-05-30T13:06:44.106Z,7788.00
2019-05-30T13:07:44.021Z,8004.00
2019-05-30T13:09:36.945Z,8676.00
2019-05-30T13:10:36.954Z,8580.00
2019-05-30T13:12:29.911Z,7916.00
2019-05-30T13:13:29.920Z,7892.00
2019-05-30T13:15:22.851Z,7352.00
2019-05-30T13:16:22.859Z,7432.00
2019-05-30T13:18:15.786Z,7428.00
2019-05-30T13:19:15.803Z,7488.00
2019-05-30T13:21:08.720Z,6692.00
2019-05-30T13:22:08.740Z,5952.00
2019-05-30T13:24:01.974Z,5184.00
2019-05-30T13:25:01.935Z,5188.00
2019-05-30T13:26:55.615Z,5640.00
2019-05-30T13:27:55.707Z,5776.00
2019-05-30T13:29:47.539Z,5732.00
2019-05-30T13:30:47.554Z,5756.00
2019-05-30T13:32:40.478Z,6032.00
2019-05-30T13:33:40.493Z,6152.00
2019-05-30T13:35:33.419Z,6892.00
2019-05-30T13:36:33.431Z,7232.00
2019-05-30T13:38:27.023Z,6940.00
2019-05-30T13:39:26.378Z,6952.00
2019-05-30T13:41:19.296Z,7768.00
2019-05-30T13:42:19.313Z,6876.00
2019-05-30T13:44:12.260Z,6232.00
2019-05-30T13:45:12.251Z,5552.00
2019-05-30T13:47:06.589Z,5440.00
2019-05-30T13:48:06.542Z,6084.00
2019-05-30T13:49:58.568Z,5568.00
2019-05-30T13:50:58.633Z,5488.00
2019-05-30T13:52:51.052Z,5088.00
2019-05-30T13:53:51.074Z,4676.00
2019-05-30T13:55:44.077Z,4664.00
2019-05-30T13:56:44.020Z,5192.00
2019-05-30T13:58:36.953Z,5956.00
2019-05-30T13:59:36.962Z,5396.00
2019-05-30T14:01:29.883Z,4632.00
2019-05-30T14:02:29.903Z,4700.00
2019-05-30T14:04:22.869Z,3988.00
2019-05-30T14:05:22.841Z,4056.00
2019-05-30T14:07:15.775Z,3856.00
2019-05-30T14:08:16.735Z,3832.00
2019-05-30T14:10:08.832Z,4144.00
2019-05-30T14:11:08.750Z,4252.00
2019-05-30T14:13:02.501Z,4032.00
2019-05-30T14:14:02.746Z,4216.00
2019-05-30T14:15:54.591Z,4236.00
2019-05-30T14:16:54.608Z,4600.00
2019-05-30T14:18:47.537Z,4808.00
2019-05-30T14:19:47.547Z,5036.00
2019-05-30T14:21:41.013Z,4944.00
2019-05-30T14:22:40.492Z,5024.00
2019-05-30T14:24:33.415Z,5328.00
2019-05-30T14:25:33.446Z,5848.00
2019-05-30T14:27:26.355Z,6096.00
2019-05-30T14:28:26.368Z,6088.00
2019-05-30T14:30:19.294Z,6608.00
2019-05-30T14:31:19.361Z,6600.00
2019-05-30T14:33:12.397Z,6844.00
2019-05-30T14:34:12.320Z,6520.00
2019-05-30T14:36:10.164Z,5576.00
2019-05-30T14:37:06.317Z,6004.00
2019-05-30T14:38:59.095Z,6140.00
2019-05-30T14:39:58.124Z,6020.00
2019-05-30T14:41:51.064Z,5876.00
2019-05-30T14:42:51.072Z,5836.00
2019-05-30T14:44:44.120Z,5556.00
2019-05-30T14:45:44.006Z,4788.00
2019-05-30T14:47:36.931Z,4776.00
2019-05-30T14:48:36.940Z,5192.00
2019-05-30T14:50:29.862Z,5876.00
2019-05-30T14:51:29.933Z,5652.00
2019-05-30T14:53:22.807Z,7144.00
2019-05-30T14:54:22.819Z,6640.00
2019-05-30T14:56:15.739Z,6784.00
2019-05-30T14:57:15.804Z,8368.00
2019-05-30T14:59:08.965Z,6256.00
2019-05-30T15:00:09.360Z,6168.00
2019-05-30T15:02:01.657Z,5404.00
2019-05-30T15:03:01.654Z,4692.00
2019-05-30T15:04:54.668Z,4412.00
2019-05-30T15:05:54.658Z,4268.00
2019-05-30T15:07:47.593Z,6472.00
2019-05-30T15:08:47.599Z,6236.00
2019-05-30T15:10:40.525Z,4964.00
2019-05-30T15:11:40.537Z,4204.00
2019-05-30T15:13:33.465Z,4036.00
2019-05-30T15:14:33.480Z,4088.00
2019-05-30T15:16:26.407Z,5088.00
2019-05-30T15:17:26.417Z,4864.00
2019-05-30T15:19:19.839Z,3692.00
2019-05-30T15:20:19.850Z,3700.00
2019-05-30T15:22:15.379Z,3928.00
2019-05-30T15:23:13.819Z,4136.00
2019-05-30T15:25:05.832Z,4508.00
2019-05-30T15:26:06.018Z,5024.00
2019-05-30T15:27:58.657Z,3796.00
2019-05-30T15:28:58.666Z,4448.00
2019-05-30T15:30:52.090Z,4472.00
2019-05-30T15:31:52.098Z,4260.00
2019-05-30T15:33:45.044Z,3912.00
2019-05-30T15:34:45.051Z,3828.00
2019-05-30T15:36:37.986Z,3712.00
2019-05-30T15:37:40.780Z,3400.00
2019-05-30T15:39:33.010Z,2900.00
2019-05-30T15:40:30.923Z,3272.00
2019-05-30T15:42:23.861Z,4608.00
2019-05-30T15:43:23.863Z,4684.00
2019-05-30T15:45:17.990Z,5248.00
2019-05-30T15:46:17.987Z,5924.00
2019-05-30T15:48:10.316Z,8028.00
2019-05-30T15:49:10.212Z,6896.00
2019-05-30T15:51:02.676Z,5756.00
2019-05-30T15:52:02.683Z,5872.00
2019-05-30T15:53:55.608Z,5080.00
2019-05-30T15:54:55.621Z,5148.00
2019-05-30T15:56:48.541Z,5260.00
2019-05-30T15:57:48.566Z,5684.00
2019-05-30T15:59:41.493Z,5624.00
2019-05-30T16:00:41.493Z,4972.00
2019-05-30T16:02:34.427Z,4884.00
2019-05-30T16:03:34.435Z,4596.00
2019-05-30T16:05:27.358Z,5880.00
2019-05-30T16:06:27.376Z,6000.00
2019-05-30T16:08:20.934Z,5652.00
2019-05-30T16:09:20.928Z,5192.00
2019-05-30T16:11:13.244Z,5260.00
2019-05-30T16:12:13.258Z,6024.00
2019-05-30T16:14:06.187Z,6824.00
2019-05-30T16:15:06.194Z,6888.00
2019-05-30T16:16:59.119Z,7452.00
2019-05-30T16:17:59.126Z,7656.00
2019-05-30T16:19:52.053Z,8188.00
2019-05-30T16:20:52.066Z,7904.00
2019-05-30T16:22:44.989Z,7996.00
2019-05-30T16:23:45.064Z,9108.00
2019-05-30T16:25:37.927Z,7996.00
2019-05-30T16:26:37.943Z,7620.00
2019-05-30T16:28:30.885Z,6300.00
2019-05-30T16:29:30.970Z,6444.00
2019-05-30T16:31:23.831Z,6868.00
2019-05-30T16:32:23.839Z,6864.00
2019-05-30T16:34:17.969Z,7240.00
2019-05-30T16:35:18.055Z,7080.00
2019-05-30T16:37:09.701Z,7096.00
2019-05-30T16:38:09.716Z,6792.00
2019-05-30T16:40:06.419Z,6856.00
2019-05-30T16:41:02.706Z,6556.00
2019-05-30T16:42:55.581Z,6236.00
2019-05-30T16:43:55.593Z,6616.00
2019-05-30T16:45:48.525Z,7736.00
2019-05-30T16:46:48.543Z,7468.00
2019-05-30T16:48:41.459Z,6308.00
2019-05-30T16:49:41.469Z,5972.00
2019-05-30T16:51:34.393Z,5604.00
2019-05-30T16:52:34.409Z,5740.00
2019-05-30T16:54:27.577Z,7012.00
2019-05-30T16:55:27.621Z,7332.00
2019-05-30T16:57:20.737Z,7008.00
2019-05-30T16:58:21.606Z,6844.00
2019-05-30T17:00:13.213Z,6520.00
2019-05-30T17:01:13.226Z,6448.00
2019-05-30T17:03:06.723Z,6348.00
2019-05-30T17:04:06.170Z,6424.00
2019-05-30T17:06:00.083Z,6440.00
2019-05-30T17:07:00.103Z,5852.00
2019-05-30T17:08:53.029Z,5840.00
2019-05-30T17:09:53.041Z,5776.00
2019-05-30T17:11:45.964Z,5512.00
2019-05-30T17:12:45.987Z,5672.00
2019-05-30T17:14:38.922Z,4484.00
2019-05-30T17:15:38.916Z,5072.00
2019-05-30T17:17:31.844Z,5012.00
2019-05-30T17:18:31.962Z,5128.00
2019-05-30T17:20:24.795Z,5740.00
2019-05-30T17:21:24.806Z,5860.00
2019-05-30T17:23:18.681Z,5528.00
2019-05-30T17:24:18.782Z,4808.00
2019-05-30T17:26:10.700Z,4552.00
2019-05-30T17:27:10.747Z,4548.00
2019-05-30T17:29:03.640Z,4892.00
2019-05-30T17:30:03.648Z,4628.00
2019-05-30T17:31:56.570Z,4528.00
2019-05-30T17:32:56.590Z,4612.00
2019-05-30T17:34:49.519Z,4612.00
2019-05-30T17:35:49.536Z,4452.00
2019-05-30T17:37:42.453Z,3800.00
2019-05-30T17:38:42.469Z,3492.00
2019-05-30T17:40:43.954Z,3472.00
2019-05-30T17:41:35.411Z,3500.00